Аэропорт: Кривой Рог. Кривой Рог

ICAO: UKDR

METAR:
2019-07-23 18:30:00
UKDR 231830Z 00000MPS CAVOK 22/13 Q1012 R36/09//70 NOSIG
METAR:
2019-07-23 17:07:00
TAF UKDR 231707Z 2318/2418 34003MPS 9999 BKN030 TX25/2412Z TN14/2403Z PROB40 TEMPO 2318/2321 VRB09G16MPS 3100 -TSRA SQ BKN015CB TEMPO 2406/2415 34006MPS 3100 -SHRA BKN015CB